createdAt,value
2019-02-17T00:01:11.424Z,13.00
2019-02-17T00:03:40.661Z,13.32
2019-02-17T00:06:08.840Z,13.75
2019-02-17T00:08:37.367Z,12.78
2019-02-17T00:11:06.312Z,13.98
2019-02-17T00:13:34.321Z,13.85
2019-02-17T00:16:02.397Z,13.60
2019-02-17T00:18:31.731Z,13.70
2019-02-17T00:20:59.934Z,13.08
2019-02-17T00:23:28.534Z,12.95
2019-02-17T00:25:57.155Z,14.10
2019-02-17T00:28:25.688Z,13.45
2019-02-17T00:30:55.140Z,13.83
2019-02-17T00:33:24.015Z,14.30
2019-02-17T00:35:52.770Z,14.10
2019-02-17T00:38:21.272Z,14.13
2019-02-17T00:40:49.464Z,14.87
2019-02-17T00:43:17.911Z,14.00
2019-02-17T00:45:46.915Z,14.80
2019-02-17T00:48:15.780Z,14.40
2019-02-17T00:50:44.482Z,15.28
2019-02-17T00:53:12.623Z,15.08
2019-02-17T00:55:41.236Z,14.75
2019-02-17T00:58:10.023Z,14.58
2019-02-17T01:00:38.209Z,15.18
2019-02-17T01:03:06.987Z,14.50
2019-02-17T01:05:35.565Z,15.03
2019-02-17T01:08:03.893Z,14.83
2019-02-17T01:10:32.845Z,14.65
2019-02-17T01:13:01.323Z,15.30
2019-02-17T01:15:29.855Z,13.35
2019-02-17T01:17:58.699Z,13.90
2019-02-17T01:20:27.097Z,14.93
2019-02-17T01:22:55.455Z,15.03
2019-02-17T01:25:23.895Z,15.18
2019-02-17T01:27:52.484Z,15.55
2019-02-17T01:30:21.113Z,15.65
2019-02-17T01:32:51.852Z,15.50
2019-02-17T01:35:20.005Z,16.15
2019-02-17T01:37:48.075Z,14.83
2019-02-17T01:40:16.573Z,15.00
2019-02-17T01:42:44.694Z,15.70
2019-02-17T01:45:13.184Z,16.27
2019-02-17T01:47:42.324Z,15.40
2019-02-17T01:50:10.909Z,16.27
2019-02-17T01:52:39.532Z,15.60
2019-02-17T01:55:07.973Z,15.43
2019-02-17T01:57:36.443Z,16.80
2019-02-17T02:00:04.966Z,15.90
2019-02-17T02:02:34.067Z,16.50
2019-02-17T02:05:02.249Z,14.65
2019-02-17T02:07:30.420Z,15.43
2019-02-17T02:09:58.596Z,16.40
2019-02-17T02:12:27.147Z,15.80
2019-02-17T02:14:56.027Z,16.42
2019-02-17T02:17:24.163Z,15.20
2019-02-17T02:19:52.273Z,14.83
2019-02-17T02:22:20.381Z,17.37
2019-02-17T02:24:48.786Z,15.83
2019-02-17T02:27:17.474Z,14.83
2019-02-17T02:29:45.891Z,14.18
2019-02-17T02:32:14.362Z,14.37
2019-02-17T02:34:42.596Z,13.40
2019-02-17T02:37:10.648Z,15.63
2019-02-17T02:39:39.355Z,15.30
2019-02-17T02:42:07.882Z,16.80
2019-02-17T02:44:37.709Z,16.65
2019-02-17T02:47:06.455Z,16.85
2019-02-17T02:49:34.586Z,14.87
2019-02-17T02:52:03.192Z,13.88
2019-02-17T02:54:32.163Z,14.58
2019-02-17T02:57:00.254Z,16.35
2019-02-17T02:59:29.236Z,16.57
2019-02-17T03:01:57.432Z,15.93
2019-02-17T03:04:26.282Z,17.73
2019-02-17T03:07:06.133Z,17.70
2019-02-17T03:09:34.275Z,16.80
2019-02-17T03:12:03.261Z,15.10
2019-02-17T03:14:31.979Z,16.93
2019-02-17T03:17:00.968Z,17.30
2019-02-17T03:19:29.211Z,18.00
2019-02-17T03:21:57.291Z,17.73
2019-02-17T03:24:26.034Z,18.40
2019-02-17T03:26:54.233Z,17.80
2019-02-17T03:29:22.989Z,17.45
2019-02-17T03:31:51.192Z,17.40
2019-02-17T03:34:19.720Z,17.02
2019-02-17T03:36:48.113Z,15.90
2019-02-17T03:39:16.320Z,15.50
2019-02-17T03:41:44.504Z,16.62
2019-02-17T03:44:13.028Z,15.30
2019-02-17T03:46:41.527Z,16.87
2019-02-17T03:49:09.576Z,15.45
2019-02-17T03:51:38.185Z,15.85
2019-02-17T03:54:06.388Z,16.45
2019-02-17T03:56:34.523Z,16.35
2019-02-17T03:59:02.689Z,17.40
2019-02-17T04:01:30.836Z,16.05
2019-02-17T04:03:59.775Z,16.67
2019-02-17T04:06:28.077Z,16.02
2019-02-17T04:08:56.179Z,15.03
2019-02-17T04:11:24.599Z,16.35
2019-02-17T04:13:53.216Z,14.67
2019-02-17T04:16:21.410Z,13.38
2019-02-17T04:18:49.943Z,15.90
2019-02-17T04:21:18.161Z,16.97
2019-02-17T04:23:46.291Z,16.60
2019-02-17T04:26:15.184Z,16.80
2019-02-17T04:28:43.776Z,16.07
2019-02-17T04:31:12.376Z,16.15
2019-02-17T04:33:41.405Z,15.90
2019-02-17T04:36:09.484Z,16.90
2019-02-17T04:38:37.901Z,17.48
2019-02-17T04:41:06.489Z,17.17
2019-02-17T04:43:35.067Z,17.20
2019-02-17T04:46:03.171Z,17.95
2019-02-17T04:48:31.270Z,17.15
2019-02-17T04:51:00.182Z,17.42
2019-02-17T04:53:28.339Z,17.15
2019-02-17T04:55:56.427Z,18.60
2019-02-17T04:58:24.570Z,17.30
2019-02-17T05:00:52.645Z,18.15
2019-02-17T05:03:21.124Z,18.98
2019-02-17T05:05:49.221Z,19.90
2019-02-17T05:08:17.292Z,18.98
2019-02-17T05:10:45.944Z,19.85
2019-02-17T05:13:16.424Z,18.70
2019-02-17T05:15:44.303Z,18.80
2019-02-17T05:18:12.396Z,19.10
2019-02-17T05:20:40.388Z,21.02
2019-02-17T05:23:10.308Z,20.70
2019-02-17T05:25:38.412Z,21.23
2019-02-17T05:28:07.333Z,21.33
2019-02-17T05:30:35.920Z,21.30
2019-02-17T05:33:04.291Z,21.07
2019-02-17T05:35:33.544Z,21.05
2019-02-17T05:38:01.914Z,22.15
2019-02-17T05:40:30.099Z,22.93
2019-02-17T05:42:58.437Z,22.37
2019-02-17T05:45:26.536Z,22.27
2019-02-17T05:47:54.881Z,22.77
2019-02-17T05:50:23.092Z,23.25
2019-02-17T05:52:51.553Z,23.65
2019-02-17T05:55:21.965Z,22.67
2019-02-17T05:57:50.687Z,22.73
2019-02-17T06:00:21.033Z,22.40
2019-02-17T06:02:49.662Z,22.82
2019-02-17T06:05:17.840Z,22.82
2019-02-17T06:07:46.000Z,23.07
2019-02-17T06:10:14.633Z,24.10
2019-02-17T06:12:43.081Z,25.15
2019-02-17T06:15:12.024Z,24.50
2019-02-17T06:17:40.180Z,24.80
2019-02-17T06:20:08.765Z,24.35
2019-02-17T06:22:37.187Z,30.15
2019-02-17T06:25:05.521Z,25.55
2019-02-17T06:27:33.904Z,24.80
2019-02-17T06:30:02.591Z,24.60
2019-02-17T06:32:31.031Z,25.48
2019-02-17T06:34:59.156Z,26.57
2019-02-17T06:37:27.827Z,25.25
2019-02-17T06:39:56.237Z,26.45
2019-02-17T06:42:24.379Z,26.07
2019-02-17T06:44:53.252Z,26.40
2019-02-17T06:47:25.674Z,26.83
2019-02-17T06:49:54.088Z,26.80
2019-02-17T06:52:22.880Z,27.75
2019-02-17T06:55:12.986Z,27.77
2019-02-17T06:57:41.955Z,27.48
2019-02-17T07:00:26.376Z,26.85
2019-02-17T07:02:54.933Z,29.72
2019-02-17T07:05:41.155Z,27.00
2019-02-17T07:08:10.864Z,27.00
2019-02-17T07:10:40.308Z,26.07
2019-02-17T07:13:08.697Z,27.77
2019-02-17T07:15:37.019Z,27.02
2019-02-17T07:18:05.490Z,27.32
2019-02-17T07:20:33.771Z,25.43
2019-02-17T07:23:02.308Z,26.60
2019-02-17T07:25:30.744Z,27.80
2019-02-17T07:27:58.791Z,28.73
2019-02-17T07:30:27.674Z,28.32
2019-02-17T07:32:56.291Z,28.38
2019-02-17T07:35:25.039Z,27.07
2019-02-17T07:37:53.509Z,27.10
2019-02-17T07:40:21.661Z,25.82
2019-02-17T07:42:50.120Z,27.80
2019-02-17T07:45:18.198Z,27.22
2019-02-17T07:47:46.243Z,26.80
2019-02-17T07:50:14.568Z,29.00
2019-02-17T07:52:43.276Z,28.45
2019-02-17T07:55:11.329Z,27.87
2019-02-17T07:57:39.491Z,27.70
2019-02-17T08:00:08.308Z,27.35
2019-02-17T08:02:36.370Z,28.00
2019-02-17T08:05:04.862Z,28.27
2019-02-17T08:07:33.324Z,27.75
2019-02-17T08:10:01.404Z,28.87
2019-02-17T08:12:29.791Z,28.00
2019-02-17T08:14:57.852Z,28.52
2019-02-17T08:17:26.216Z,27.73
2019-02-17T08:19:54.835Z,28.05
2019-02-17T08:22:23.209Z,28.60
2019-02-17T08:24:51.261Z,28.05
2019-02-17T08:27:19.768Z,26.45
2019-02-17T08:29:48.288Z,38.45
2019-02-17T08:32:16.619Z,31.60
2019-02-17T08:34:45.257Z,34.88
2019-02-17T08:37:13.739Z,28.20
2019-02-17T08:39:42.279Z,27.22
2019-02-17T08:42:10.657Z,26.35
2019-02-17T08:44:38.753Z,26.85
2019-02-17T08:47:07.617Z,27.45
2019-02-17T08:49:36.083Z,26.48
2019-02-17T08:52:04.181Z,26.80
2019-02-17T08:54:32.252Z,27.37
2019-02-17T08:57:00.330Z,27.77
2019-02-17T08:59:28.451Z,27.77
2019-02-17T09:02:05.576Z,29.60
2019-02-17T09:04:26.603Z,27.13
2019-02-17T09:06:55.061Z,26.65
2019-02-17T09:09:23.429Z,27.50
2019-02-17T09:11:51.816Z,27.10
2019-02-17T09:14:19.908Z,26.37
2019-02-17T09:16:48.054Z,26.48
2019-02-17T09:19:16.852Z,25.60
2019-02-17T09:21:45.307Z,26.82
2019-02-17T09:24:15.358Z,26.02
2019-02-17T09:26:43.496Z,24.77
2019-02-17T09:29:11.910Z,25.20
2019-02-17T09:31:40.801Z,26.33
2019-02-17T09:34:08.867Z,26.15
2019-02-17T09:36:37.294Z,25.90
2019-02-17T09:39:07.973Z,24.23
2019-02-17T09:41:36.297Z,24.80
2019-02-17T09:44:05.294Z,24.92
2019-02-17T09:46:33.406Z,24.92
2019-02-17T09:49:01.497Z,24.45
2019-02-17T09:51:29.867Z,25.17
2019-02-17T09:53:57.968Z,25.53
2019-02-17T09:56:26.049Z,25.80
2019-02-17T09:58:54.141Z,24.70
2019-02-17T10:01:22.213Z,25.13
2019-02-17T10:03:51.068Z,24.90
2019-02-17T10:06:19.854Z,25.30
2019-02-17T10:08:48.341Z,24.27
2019-02-17T10:11:16.819Z,23.60
2019-02-17T10:13:44.892Z,24.00
2019-02-17T10:16:12.956Z,25.17
2019-02-17T10:18:41.279Z,24.80
2019-02-17T10:21:09.664Z,23.10
2019-02-17T10:23:37.981Z,24.23
2019-02-17T10:26:06.401Z,23.92
2019-02-17T10:28:42.003Z,25.20
2019-02-17T10:31:05.632Z,25.40
2019-02-17T10:33:34.403Z,26.07
2019-02-17T10:36:02.808Z,25.37
2019-02-17T10:38:31.241Z,26.75
2019-02-17T10:40:59.743Z,25.60
2019-02-17T10:43:28.099Z,34.08
2019-02-17T10:45:56.218Z,29.05
2019-02-17T10:48:25.192Z,27.70
2019-02-17T10:50:53.250Z,27.93
2019-02-17T10:53:21.744Z,27.90
2019-02-17T10:55:49.940Z,28.10
2019-02-17T10:58:18.495Z,28.50
2019-02-17T11:00:46.879Z,28.80
2019-02-17T11:03:15.947Z,27.62
2019-02-17T11:05:45.855Z,27.32
2019-02-17T11:08:13.968Z,26.70
2019-02-17T11:10:43.888Z,25.90
2019-02-17T11:13:11.980Z,25.80
2019-02-17T11:15:40.379Z,25.77
2019-02-17T11:18:09.300Z,24.82
2019-02-17T11:20:37.634Z,25.35
2019-02-17T11:23:05.683Z,24.65
2019-02-17T11:25:34.444Z,23.70
2019-02-17T11:28:02.824Z,21.87
2019-02-17T11:30:30.879Z,21.00
2019-02-17T11:32:59.725Z,26.37
2019-02-17T11:35:29.786Z,20.62
2019-02-17T11:37:57.843Z,21.75
2019-02-17T11:40:25.918Z,22.65
2019-02-17T11:42:54.057Z,21.77
2019-02-17T11:45:22.151Z,20.60
2019-02-17T11:47:50.270Z,21.05
2019-02-17T11:50:19.519Z,20.40
2019-02-17T11:52:48.030Z,20.70
2019-02-17T11:55:16.451Z,19.67
2019-02-17T11:57:44.552Z,20.20
2019-02-17T12:00:14.220Z,19.57
2019-02-17T12:02:42.337Z,17.90
2019-02-17T12:05:10.953Z,17.90
2019-02-17T12:07:39.065Z,17.95
2019-02-17T12:10:07.833Z,19.90
2019-02-17T12:12:36.463Z,19.50
2019-02-17T12:15:04.769Z,20.70
2019-02-17T12:17:33.680Z,20.00
2019-02-17T12:20:24.726Z,20.35
2019-02-17T12:23:00.632Z,21.07
2019-02-17T12:25:35.800Z,22.82
2019-02-17T12:28:22.897Z,21.87
2019-02-17T12:30:51.948Z,23.20
2019-02-17T12:33:21.755Z,23.75
2019-02-17T12:35:49.808Z,23.38
2019-02-17T12:38:18.467Z,24.10
2019-02-17T12:40:46.685Z,24.43
2019-02-17T12:43:14.874Z,25.48
2019-02-17T12:45:43.007Z,26.68
2019-02-17T12:48:11.436Z,25.70
2019-02-17T12:50:39.599Z,27.75
2019-02-17T12:53:07.749Z,27.80
2019-02-17T12:55:36.100Z,27.97
2019-02-17T12:58:04.471Z,28.60
2019-02-17T13:00:33.287Z,29.55
2019-02-17T13:03:01.989Z,30.80
2019-02-17T13:05:30.331Z,29.60
2019-02-17T13:07:58.652Z,30.40
2019-02-17T13:10:27.522Z,29.75
2019-02-17T13:12:55.645Z,29.92
2019-02-17T13:15:23.695Z,30.80
2019-02-17T13:17:53.067Z,31.30
2019-02-17T13:20:21.171Z,34.00
2019-02-17T13:22:49.264Z,33.33
2019-02-17T13:25:17.688Z,31.90
2019-02-17T13:27:46.101Z,31.45
2019-02-17T13:30:15.642Z,31.50
2019-02-17T13:32:43.669Z,31.62
2019-02-17T13:35:11.751Z,31.60
2019-02-17T13:37:40.143Z,32.20
2019-02-17T13:40:08.937Z,32.25
2019-02-17T13:42:36.985Z,31.75
2019-02-17T13:45:05.125Z,32.00
2019-02-17T13:47:33.162Z,31.33
2019-02-17T13:50:01.851Z,31.10
2019-02-17T13:52:32.012Z,32.38
2019-02-17T13:54:59.639Z,32.80
2019-02-17T13:57:27.940Z,32.93
2019-02-17T13:59:56.320Z,32.48
2019-02-17T14:02:24.704Z,31.62
2019-02-17T14:04:53.189Z,31.02
2019-02-17T14:07:21.392Z,32.40
2019-02-17T14:09:49.495Z,32.13
2019-02-17T14:12:17.746Z,31.23
2019-02-17T14:14:45.781Z,31.42
2019-02-17T14:17:14.232Z,30.62
2019-02-17T14:19:43.045Z,31.12
2019-02-17T14:22:11.468Z,32.48
2019-02-17T14:24:39.514Z,32.00
2019-02-17T14:27:07.929Z,32.03
2019-02-17T14:29:36.084Z,32.70
2019-02-17T14:32:05.073Z,32.23
2019-02-17T14:34:33.627Z,31.07
2019-02-17T14:37:02.445Z,30.90
2019-02-17T14:39:30.515Z,30.93
2019-02-17T14:41:59.160Z,31.65
2019-02-17T14:44:27.655Z,32.03
2019-02-17T14:46:55.795Z,30.90
2019-02-17T14:49:24.214Z,32.05
2019-02-17T14:51:52.549Z,30.52
2019-02-17T14:54:21.415Z,34.57
2019-02-17T14:56:49.634Z,31.23
2019-02-17T14:59:17.761Z,30.27
2019-02-17T15:01:46.872Z,32.00
2019-02-17T15:04:15.601Z,32.20
2019-02-17T15:06:43.836Z,35.27
2019-02-17T15:09:11.962Z,34.60
2019-02-17T15:11:40.528Z,34.30
2019-02-17T15:14:09.173Z,34.70
2019-02-17T15:16:38.137Z,34.55
2019-02-17T15:19:07.558Z,33.48
2019-02-17T15:21:35.727Z,33.83
2019-02-17T15:24:04.330Z,33.28
2019-02-17T15:26:32.434Z,33.90
2019-02-17T15:29:01.103Z,34.00
2019-02-17T15:31:30.995Z,32.90
2019-02-17T15:33:59.285Z,34.75
2019-02-17T15:36:27.715Z,33.05
2019-02-17T15:38:56.753Z,32.95
2019-02-17T15:41:25.355Z,33.20
2019-02-17T15:43:53.879Z,33.60
2019-02-17T15:46:22.274Z,33.80
2019-02-17T15:48:51.311Z,35.28
2019-02-17T15:51:20.144Z,34.00
2019-02-17T15:53:49.919Z,32.40
2019-02-17T15:56:18.636Z,32.00
2019-02-17T15:58:47.137Z,33.10
2019-02-17T16:01:15.246Z,32.73
2019-02-17T16:03:45.034Z,32.95
2019-02-17T16:06:13.250Z,33.45
2019-02-17T16:08:41.357Z,31.00
2019-02-17T16:11:09.843Z,31.35
2019-02-17T16:13:38.569Z,32.67
2019-02-17T16:16:09.298Z,33.90
2019-02-17T16:18:37.438Z,33.08
2019-02-17T16:21:06.031Z,34.10
2019-02-17T16:23:34.108Z,32.90
2019-02-17T16:26:02.818Z,34.20
2019-02-17T16:28:31.198Z,32.90
2019-02-17T16:30:59.538Z,34.18
2019-02-17T16:33:27.920Z,32.85
2019-02-17T16:35:56.716Z,34.05
2019-02-17T16:38:25.095Z,33.13
2019-02-17T16:40:53.127Z,32.85
2019-02-17T16:43:21.455Z,33.98
2019-02-17T16:45:49.531Z,32.48
2019-02-17T16:48:17.564Z,33.08
2019-02-17T16:50:45.959Z,32.83
2019-02-17T16:53:14.681Z,33.97
2019-02-17T16:55:43.420Z,32.90
2019-02-17T16:58:11.769Z,33.70
2019-02-17T17:00:39.780Z,32.85
2019-02-17T17:03:08.148Z,32.98
2019-02-17T17:05:36.208Z,33.13
2019-02-17T17:08:04.254Z,33.08
2019-02-17T17:10:32.686Z,34.15
2019-02-17T17:13:00.740Z,32.95
2019-02-17T17:15:30.364Z,33.50
2019-02-17T17:17:58.420Z,33.50
2019-02-17T17:20:26.768Z,33.83
2019-02-17T17:22:55.096Z,33.40
2019-02-17T17:25:23.576Z,32.98
2019-02-17T17:27:51.957Z,33.75
2019-02-17T17:30:20.331Z,33.90
2019-02-17T17:32:49.007Z,33.05
2019-02-17T17:35:17.391Z,33.30
2019-02-17T17:37:46.085Z,32.80
2019-02-17T17:40:14.673Z,33.40
2019-02-17T17:42:42.704Z,32.40
2019-02-17T17:45:12.117Z,32.40
2019-02-17T17:47:40.167Z,33.20
2019-02-17T17:50:08.930Z,33.10
2019-02-17T17:52:37.208Z,33.45
2019-02-17T17:55:06.537Z,32.40
2019-02-17T17:57:34.860Z,34.03
2019-02-17T18:00:03.355Z,32.17
2019-02-17T18:02:31.380Z,32.38
2019-02-17T18:05:08.434Z,31.33
2019-02-17T18:07:29.278Z,30.95
2019-02-17T18:09:57.454Z,31.95
2019-02-17T18:12:25.949Z,31.87
2019-02-17T18:14:54.026Z,31.37
2019-02-17T18:17:22.208Z,31.50
2019-02-17T18:19:50.437Z,30.45
2019-02-17T18:22:18.756Z,31.20
2019-02-17T18:24:46.826Z,32.03
2019-02-17T18:27:15.212Z,31.00
2019-02-17T18:29:43.605Z,30.83
2019-02-17T18:32:11.681Z,31.80
2019-02-17T18:34:40.453Z,31.77
2019-02-17T18:37:09.072Z,30.97
2019-02-17T18:39:37.103Z,31.00
2019-02-17T18:42:05.220Z,31.12
2019-02-17T18:44:33.389Z,30.95
2019-02-17T18:47:01.719Z,31.80
2019-02-17T18:49:30.253Z,31.62
2019-02-17T18:51:59.047Z,30.72
2019-02-17T18:54:28.765Z,31.23
2019-02-17T18:56:57.311Z,30.62
2019-02-17T18:59:25.888Z,30.68
2019-02-17T19:01:54.858Z,30.80
2019-02-17T19:04:22.923Z,31.40
2019-02-17T19:06:51.380Z,31.60
2019-02-17T19:09:19.728Z,31.40
2019-02-17T19:11:47.997Z,31.02
2019-02-17T19:14:16.469Z,31.33
2019-02-17T19:16:45.460Z,30.88
2019-02-17T19:19:13.940Z,31.42
2019-02-17T19:21:42.322Z,30.27
2019-02-17T19:24:10.718Z,29.40
2019-02-17T19:26:39.081Z,30.50
2019-02-17T19:29:07.456Z,31.37
2019-02-17T19:31:35.536Z,30.65
2019-02-17T19:34:04.160Z,30.50
2019-02-17T19:36:32.491Z,30.10
2019-02-17T19:39:00.572Z,30.30
2019-02-17T19:41:28.926Z,30.80
2019-02-17T19:43:57.734Z,30.40
2019-02-17T19:46:26.111Z,29.95
2019-02-17T19:48:54.813Z,29.72
2019-02-17T19:51:23.185Z,31.50
2019-02-17T19:53:51.868Z,30.70
2019-02-17T19:56:20.231Z,30.23
2019-02-17T19:58:48.652Z,29.92
2019-02-17T20:01:17.046Z,33.00
2019-02-17T20:04:00.204Z,33.10
2019-02-17T20:06:28.285Z,52.55
2019-02-17T20:08:56.352Z,35.92
2019-02-17T20:11:24.406Z,46.33
2019-02-17T20:13:53.028Z,38.85
2019-02-17T20:16:21.092Z,30.20
2019-02-17T20:18:49.793Z,29.97
2019-02-17T20:21:18.472Z,29.45
2019-02-17T20:23:46.908Z,29.98
2019-02-17T20:26:15.254Z,29.15
2019-02-17T20:28:43.876Z,29.00
2019-02-17T20:31:12.009Z,29.32
2019-02-17T20:33:40.420Z,38.78
2019-02-17T20:36:08.793Z,35.53
2019-02-17T20:38:37.141Z,31.15
2019-02-17T20:41:05.807Z,29.98
2019-02-17T20:43:33.865Z,28.40
2019-02-17T20:46:02.571Z,28.55
2019-02-17T20:48:30.956Z,28.23
2019-02-17T20:50:59.032Z,29.93
2019-02-17T20:53:27.447Z,28.83
2019-02-17T20:55:56.095Z,28.65
2019-02-17T20:58:24.511Z,28.40
2019-02-17T21:00:52.561Z,28.90
2019-02-17T21:03:21.031Z,29.02
2019-02-17T21:05:49.815Z,29.30
2019-02-17T21:08:18.609Z,29.25
2019-02-17T21:10:47.293Z,30.17
2019-02-17T21:13:15.384Z,30.00
2019-02-17T21:15:44.189Z,28.80
2019-02-17T21:18:12.235Z,28.35
2019-02-17T21:20:40.297Z,28.20
2019-02-17T21:23:08.677Z,27.37
2019-02-17T21:25:36.719Z,29.02
2019-02-17T21:28:05.103Z,28.27
2019-02-17T21:30:33.509Z,28.38
2019-02-17T21:33:02.418Z,27.67
2019-02-17T21:35:30.921Z,28.42
2019-02-17T21:37:59.342Z,28.67
2019-02-17T21:40:28.152Z,27.98
2019-02-17T21:42:56.737Z,28.13
2019-02-17T21:45:25.161Z,28.10
2019-02-17T21:47:53.576Z,27.67
2019-02-17T21:50:22.623Z,28.07
2019-02-17T21:52:51.481Z,26.17
2019-02-17T21:55:19.909Z,28.90
2019-02-17T21:57:48.361Z,28.27
2019-02-17T22:00:16.773Z,27.20
2019-02-17T22:02:44.820Z,27.30
2019-02-17T22:05:12.884Z,26.63
2019-02-17T22:07:40.955Z,26.87
2019-02-17T22:10:10.241Z,26.40
2019-02-17T22:12:38.919Z,26.57
2019-02-17T22:15:08.418Z,28.23
2019-02-17T22:17:37.152Z,27.70
2019-02-17T22:20:05.744Z,27.80
2019-02-17T22:22:34.535Z,28.60
2019-02-17T22:25:03.189Z,26.73
2019-02-17T22:27:31.744Z,27.32
2019-02-17T22:29:59.795Z,27.10
2019-02-17T22:32:28.158Z,28.67
2019-02-17T22:34:56.237Z,28.05
2019-02-17T22:37:24.583Z,26.75
2019-02-17T22:39:52.627Z,27.53
2019-02-17T22:42:21.729Z,27.97
2019-02-17T22:44:50.213Z,27.47
2019-02-17T22:47:18.995Z,28.60
2019-02-17T22:49:47.685Z,27.25
2019-02-17T22:52:16.371Z,26.50
2019-02-17T22:54:44.413Z,28.38
2019-02-17T22:57:12.896Z,26.90
2019-02-17T22:59:41.232Z,27.90
2019-02-17T23:02:11.936Z,27.37
2019-02-17T23:04:39.684Z,27.93
2019-02-17T23:07:08.596Z,27.20
2019-02-17T23:09:37.193Z,26.33
2019-02-17T23:12:05.269Z,27.13
2019-02-17T23:14:33.651Z,27.27
2019-02-17T23:17:02.633Z,25.92
2019-02-17T23:19:30.942Z,26.10
2019-02-17T23:21:59.360Z,26.60
2019-02-17T23:24:27.980Z,26.13
2019-02-17T23:26:56.059Z,26.75
2019-02-17T23:29:24.439Z,25.90
2019-02-17T23:31:52.801Z,26.23
2019-02-17T23:34:20.826Z,25.10
2019-02-17T23:36:49.249Z,25.00
2019-02-17T23:39:17.316Z,25.12
2019-02-17T23:41:45.371Z,25.77
2019-02-17T23:44:13.772Z,25.43
2019-02-17T23:46:42.153Z,25.37
2019-02-17T23:49:10.358Z,25.10
2019-02-17T23:51:39.008Z,25.55
2019-02-17T23:54:07.062Z,25.90
2019-02-17T23:56:35.378Z,25.85
2019-02-17T23:59:03.784Z,25.70
